createdAt,value
2018-05-09T00:00:10.456Z,60.9
2018-05-09T00:01:00.731Z,60.9
2018-05-09T00:01:50.791Z,60.9
2018-05-09T00:02:41.398Z,60.9
2018-05-09T00:03:31.530Z,60.9
2018-05-09T00:04:21.257Z,60.9
2018-05-09T00:05:11.571Z,60.8
2018-05-09T00:06:01.671Z,60.8
2018-05-09T00:06:51.696Z,60.8
2018-05-09T00:07:41.493Z,60.8
2018-05-09T00:08:31.844Z,60.8
2018-05-09T00:09:21.363Z,60.8
2018-05-09T00:10:11.968Z,60.8
2018-05-09T00:11:01.752Z,60.8
2018-05-09T00:11:52.178Z,60.8
2018-05-09T00:12:41.873Z,60.8
2018-05-09T00:13:32.215Z,60.7
2018-05-09T00:14:22.287Z,60.7
2018-05-09T00:15:11.840Z,60.7
2018-05-09T00:16:02.123Z,60.7
2018-05-09T00:16:52.484Z,60.7
2018-05-09T00:17:42.551Z,60.7
2018-05-09T00:18:32.342Z,60.6
2018-05-09T00:19:22.389Z,60.6
2018-05-09T00:20:12.463Z,60.6
2018-05-09T00:21:02.795Z,60.6
2018-05-09T00:21:52.591Z,60.6
2018-05-09T00:22:42.967Z,60.6
2018-05-09T00:23:33.032Z,60.6
2018-05-09T00:24:22.804Z,60.6
2018-05-09T00:25:12.861Z,60.5
2018-05-09T00:26:02.648Z,60.5
2018-05-09T00:26:52.995Z,60.5
2018-05-09T00:27:42.476Z,60.5
2018-05-09T00:28:33.120Z,60.5
2018-05-09T00:29:22.651Z,60.5
2018-05-09T00:30:13.253Z,60.5
2018-05-09T00:31:03.305Z,60.4
2018-05-09T00:31:53.656Z,60.4
2018-05-09T00:32:43.197Z,60.4
2018-05-09T00:33:33.773Z,60.4
2018-05-09T00:34:23.803Z,60.4
2018-05-09T00:35:13.879Z,60.4
2018-05-09T00:36:03.971Z,60.4
2018-05-09T00:36:53.744Z,60.4
2018-05-09T00:37:43.539Z,60.3
2018-05-09T00:38:33.342Z,60.3
2018-05-09T00:39:23.928Z,60.3
2018-05-09T00:40:14.281Z,60.3
2018-05-09T00:41:04.085Z,60.3
2018-05-09T00:41:54.419Z,60.3
2018-05-09T00:42:44.189Z,60.3
2018-05-09T00:43:34.280Z,60.3
2018-05-09T00:44:24.618Z,60.3
2018-05-09T00:45:14.109Z,60.3
2018-05-09T00:46:04.822Z,60.2
2018-05-09T00:46:54.532Z,60.2
2018-05-09T00:47:44.873Z,60.2
2018-05-09T00:48:34.929Z,60.2
2018-05-09T00:49:25.007Z,60.2
2018-05-09T00:50:15.647Z,60.2
2018-05-09T00:51:04.560Z,60.1
2018-05-09T00:51:54.634Z,60.1
2018-05-09T00:52:45.364Z,60.1
2018-05-09T00:53:35.296Z,60.1
2018-05-09T00:54:25.124Z,60.1
2018-05-09T00:55:15.166Z,60.1
2018-05-09T00:56:05.509Z,60.1
2018-05-09T00:56:55.618Z,60.1
2018-05-09T00:57:45.368Z,60.1
2018-05-09T00:58:35.162Z,60.1
2018-05-09T00:59:25.195Z,60
2018-05-09T01:00:15.834Z,60
2018-05-09T01:01:05.863Z,60
2018-05-09T01:01:55.958Z,60
2018-05-09T01:02:45.738Z,59.9
2018-05-09T01:03:35.807Z,59.9
2018-05-09T01:04:25.857Z,59.9
2018-05-09T01:05:15.921Z,59.9
2018-05-09T01:06:06.278Z,59.9
2018-05-09T01:06:56.335Z,59.9
2018-05-09T01:07:46.133Z,59.9
2018-05-09T01:08:35.886Z,59.9
2018-05-09T01:09:26.538Z,59.9
2018-05-09T01:10:16.281Z,59.9
2018-05-09T01:11:06.651Z,59.9
2018-05-09T01:11:56.430Z,59.8
2018-05-09T01:12:46.489Z,59.8
2018-05-09T01:13:36.567Z,59.8
2018-05-09T01:14:26.919Z,59.8
2018-05-09T01:15:16.424Z,59.8
2018-05-09T01:16:07.039Z,59.8
2018-05-09T01:16:56.812Z,59.8
2018-05-09T01:17:47.172Z,59.8
2018-05-09T01:18:36.961Z,59.7
2018-05-09T01:19:27.041Z,59.8
2018-05-09T01:20:16.820Z,59.7
2018-05-09T01:21:07.430Z,59.7
2018-05-09T01:21:57.211Z,59.7
2018-05-09T01:22:46.994Z,59.7
2018-05-09T01:23:37.620Z,59.6
2018-05-09T01:24:27.458Z,59.6
2018-05-09T01:25:17.455Z,59.6
2018-05-09T01:26:07.593Z,59.6
2018-05-09T01:26:57.891Z,59.6
2018-05-09T01:27:47.665Z,59.6
2018-05-09T01:28:37.982Z,59.6
2018-05-09T01:29:27.525Z,59.6
2018-05-09T01:30:18.119Z,59.6
2018-05-09T01:31:07.901Z,59.6
2018-05-09T01:31:58.028Z,59.5
2018-05-09T01:32:48.324Z,59.6
2018-05-09T01:33:38.387Z,59.5
2018-05-09T01:34:28.512Z,59.5
2018-05-09T01:35:18.536Z,59.5
2018-05-09T01:36:08.287Z,59.4
2018-05-09T01:36:58.642Z,59.4
2018-05-09T01:37:48.429Z,59.4
2018-05-09T01:38:38.482Z,59.4
2018-05-09T01:39:28.581Z,59.4
2018-05-09T01:40:18.904Z,59.4
2018-05-09T01:41:08.131Z,59.4
2018-05-09T01:41:59.014Z,59.4
2018-05-09T01:42:49.096Z,59.4
2018-05-09T01:43:39.150Z,59.4
2018-05-09T01:44:28.366Z,59.3
2018-05-09T01:45:19.006Z,59.3
2018-05-09T01:46:09.079Z,59.3
2018-05-09T01:46:59.404Z,59.3
2018-05-09T01:47:49.479Z,59.3
2018-05-09T01:48:39.307Z,59.3
2018-05-09T01:49:29.599Z,59.3
2018-05-09T01:50:18.543Z,59.3
2018-05-09T01:51:09.156Z,59.3
2018-05-09T01:51:59.811Z,59.3
2018-05-09T01:52:49.567Z,59.3
2018-05-09T01:53:39.955Z,59.2
2018-05-09T01:54:29.988Z,59.2
2018-05-09T01:55:19.579Z,59.2
2018-05-09T01:56:10.130Z,59.1
2018-05-09T01:56:59.907Z,59.2
2018-05-09T01:57:49.773Z,59.1
2018-05-09T01:58:40.270Z,59.1
2018-05-09T01:59:30.125Z,59.1
2018-05-09T02:00:20.416Z,59.1
2018-05-09T02:01:10.480Z,59.1
2018-05-09T02:02:00.590Z,59.1
2018-05-09T02:02:50.617Z,59.1
2018-05-09T02:03:40.679Z,59.1
2018-05-09T02:04:30.458Z,59.1
2018-05-09T02:05:20.520Z,59.1
2018-05-09T02:06:11.637Z,59
2018-05-09T02:07:00.982Z,59
2018-05-09T02:07:51.003Z,59
2018-05-09T02:08:40.786Z,59
2018-05-09T02:09:30.840Z,59
2018-05-09T02:10:21.292Z,58.9
2018-05-09T02:11:11.264Z,58.9
2018-05-09T02:12:01.023Z,58.9
2018-05-09T02:12:51.402Z,58.9
2018-05-09T02:13:41.197Z,58.9
2018-05-09T02:14:31.525Z,58.9
2018-05-09T02:15:21.312Z,58.9
2018-05-09T02:16:11.406Z,58.9
2018-05-09T02:17:01.704Z,58.9
2018-05-09T02:17:51.512Z,58.9
2018-05-09T02:18:41.562Z,58.8
2018-05-09T02:19:31.884Z,58.8
2018-05-09T02:20:21.411Z,58.8
2018-05-09T02:21:12.031Z,58.8
2018-05-09T02:22:02.091Z,58.8
2018-05-09T02:22:52.134Z,58.8
2018-05-09T02:23:41.956Z,58.8
2018-05-09T02:24:32.283Z,58.8
2018-05-09T02:25:22.104Z,58.8
2018-05-09T02:26:12.417Z,58.8
2018-05-09T02:27:02.209Z,58.7
2018-05-09T02:27:52.540Z,58.7
2018-05-09T02:28:42.595Z,58.8
2018-05-09T02:29:32.116Z,58.7
2018-05-09T02:30:22.739Z,58.7
2018-05-09T02:31:13.411Z,58.6
2018-05-09T02:32:02.316Z,58.6
2018-05-09T02:32:52.657Z,58.6
2018-05-09T02:33:42.724Z,58.6
2018-05-09T04:37:19.312Z,56.7
2018-05-09T04:38:09.384Z,56.6
2018-05-09T04:38:59.124Z,56.6
2018-05-09T04:39:49.464Z,56.6
2018-05-09T04:40:39.522Z,56.6
2018-05-09T04:41:29.269Z,56.6
2018-05-09T04:42:19.364Z,56.6
2018-05-09T04:43:09.681Z,56.6
2018-05-09T04:43:59.188Z,56.6
2018-05-09T04:44:49.548Z,56.6
2018-05-09T04:45:39.635Z,56.6
2018-05-09T04:46:29.987Z,56.6
2018-05-09T04:47:20.048Z,56.6
2018-05-09T04:48:10.047Z,56.5
2018-05-09T04:49:00.116Z,56.5
2018-05-09T04:49:50.188Z,56.5
2018-05-09T04:50:40.235Z,56.4
2018-05-09T04:51:30.332Z,56.4
2018-05-09T04:52:20.362Z,56.4
2018-05-09T04:53:10.157Z,56.3
2018-05-09T04:54:00.480Z,56.3
2018-05-09T04:54:49.965Z,56.2
2018-05-09T04:55:42.020Z,56.2
2018-05-09T04:56:30.415Z,56.1
2018-05-09T04:57:20.446Z,56.1
2018-05-09T04:58:10.526Z,56.1
2018-05-09T04:59:00.593Z,56.1
2018-05-09T04:59:50.917Z,56.1
2018-05-09T05:00:40.994Z,56.1
2018-05-09T05:01:31.059Z,56.1
2018-05-09T05:02:20.842Z,56.1
2018-05-09T05:03:10.891Z,56
2018-05-09T05:04:01.243Z,56
2018-05-09T05:04:51.292Z,56
2018-05-09T05:05:41.386Z,56
2018-05-09T05:06:31.402Z,55.9
2018-05-09T05:07:21.207Z,55.9
2018-05-09T05:08:11.554Z,55.9
2018-05-09T05:09:01.617Z,55.9
2018-05-09T05:09:51.631Z,55.9
2018-05-09T05:10:41.427Z,55.9
2018-05-09T05:11:31.775Z,55.9
2018-05-09T05:12:21.048Z,55.9
2018-05-09T05:13:11.893Z,55.9
2018-05-09T05:14:01.682Z,55.9
2018-05-09T05:14:51.725Z,55.9
2018-05-09T05:15:42.514Z,55.8
2018-05-09T05:16:32.136Z,55.8
2018-05-09T05:17:21.708Z,55.8
2018-05-09T05:18:11.736Z,55.8
2018-05-09T05:19:01.788Z,55.8
2018-05-09T05:19:52.481Z,55.8
2018-05-09T05:20:42.179Z,55.8
2018-05-09T05:21:32.216Z,55.8
2018-05-09T05:22:22.294Z,55.8
2018-05-09T05:23:12.364Z,55.8
2018-05-09T05:24:02.447Z,55.8
2018-05-09T05:24:52.765Z,55.7
2018-05-09T05:25:42.877Z,55.8
2018-05-09T05:26:32.735Z,55.7
2018-05-09T05:27:22.691Z,55.7
2018-05-09T05:28:12.740Z,55.7
2018-05-09T05:29:02.833Z,55.7
2018-05-09T05:29:53.230Z,55.6
2018-05-09T05:30:43.220Z,55.6
2018-05-09T05:31:33.283Z,55.6
2018-05-09T05:32:23.048Z,55.6
2018-05-09T05:33:13.137Z,55.6
2018-05-09T05:34:03.144Z,55.6
2018-05-09T05:34:52.664Z,55.6
2018-05-09T05:35:43.555Z,55.6
2018-05-09T05:36:33.419Z,55.6
2018-05-09T05:37:23.688Z,55.6
2018-05-09T05:38:13.272Z,55.5
2018-05-09T05:39:03.822Z,55.6
2018-05-09T05:39:53.878Z,55.5
2018-05-09T05:40:43.939Z,55.5
2018-05-09T05:41:33.515Z,55.5
2018-05-09T05:42:23.790Z,55.5
2018-05-09T05:43:14.125Z,55.5
2018-05-09T05:44:04.202Z,55.5
2018-05-09T05:44:54.051Z,55.4
2018-05-09T05:45:44.058Z,55.4
2018-05-09T05:46:34.098Z,55.4
2018-05-09T05:47:24.448Z,55.4
2018-05-09T05:48:14.535Z,55.4
2018-05-09T05:49:03.726Z,55.4
2018-05-09T05:49:54.617Z,55.4
2018-05-09T05:50:44.706Z,55.4
2018-05-09T05:51:34.783Z,55.4
2018-05-09T05:52:24.546Z,55.4
2018-05-09T05:53:14.023Z,55.4
2018-05-09T05:54:04.685Z,55.3
2018-05-09T05:54:54.744Z,55.3
2018-05-09T05:55:45.057Z,55.3
2018-05-09T05:56:34.827Z,55.3
2018-05-09T05:57:24.881Z,55.1
2018-05-09T05:58:15.263Z,55
2018-05-09T05:59:05.306Z,54.8
2018-05-09T05:59:54.837Z,54.6
2018-05-09T06:00:45.449Z,54.6
2018-05-09T06:01:35.584Z,54.6
2018-05-09T06:02:25.292Z,54.4
2018-05-09T06:03:15.161Z,54.4
2018-05-09T06:04:05.416Z,54.4
2018-05-09T06:04:55.470Z,54.4
2018-05-09T06:05:45.569Z,54.4
2018-05-09T06:06:35.628Z,54.3
2018-05-09T06:07:25.455Z,54.3
2018-05-09T06:08:16.024Z,54.3
2018-05-09T06:09:05.574Z,54.3
2018-05-09T06:09:55.953Z,54.3
2018-05-09T06:10:45.625Z,54.3
2018-05-09T06:11:35.998Z,54.3
2018-05-09T06:12:26.346Z,54.3
2018-05-09T06:13:16.102Z,54.3
2018-05-09T06:14:06.461Z,54.2
2018-05-09T06:14:55.651Z,54.2
2018-05-09T06:15:45.994Z,54.2
2018-05-09T06:16:36.437Z,54.2
2018-05-09T06:17:26.458Z,54.1
2018-05-09T06:18:16.757Z,54.1
2018-05-09T06:19:06.568Z,54.1
2018-05-09T06:19:56.868Z,54.1
2018-05-09T06:20:46.699Z,54.1
2018-05-09T06:21:36.739Z,54.1
2018-05-09T06:22:26.531Z,54.1
2018-05-09T06:23:16.907Z,54.1
2018-05-09T06:24:08.087Z,54.1
2018-05-09T06:24:57.007Z,54.1
2018-05-09T06:25:47.338Z,54.1
2018-05-09T06:26:37.135Z,54
2018-05-09T06:27:27.494Z,54
2018-05-09T06:28:17.259Z,54
2018-05-09T06:29:07.341Z,54
2018-05-09T06:29:57.406Z,53.9
2018-05-09T06:30:47.711Z,53.9
2018-05-09T06:31:37.512Z,53.9
2018-05-09T06:32:27.564Z,53.9
2018-05-09T06:33:17.658Z,53.9
2018-05-09T06:34:07.606Z,53.9
2018-05-09T06:34:58.062Z,53.9
2018-05-09T06:35:47.838Z,53.9
2018-05-09T06:36:37.912Z,53.9
2018-05-09T06:37:28.238Z,53.9
2018-05-09T06:38:18.294Z,53.8
2018-05-09T06:39:07.872Z,53.8
2018-05-09T06:39:58.380Z,53.8
2018-05-09T06:40:48.288Z,53.8
2018-05-09T06:41:38.539Z,53.8
2018-05-09T06:42:28.583Z,53.8
2018-05-09T06:43:18.414Z,53.8
2018-05-09T06:44:07.909Z,53.8
2018-05-09T06:44:58.545Z,53.8
2018-05-09T06:45:48.308Z,53.8
2018-05-09T06:46:38.694Z,53.7
2018-05-09T06:47:28.708Z,53.7
2018-05-09T06:48:19.082Z,53.7
2018-05-09T06:49:08.847Z,53.7
2018-05-09T06:49:59.595Z,53.6
2018-05-09T06:50:49.271Z,53.6
2018-05-09T06:51:38.766Z,53.6
2018-05-09T06:52:28.824Z,53.6
2018-05-09T06:53:18.637Z,53.6
2018-05-09T06:54:08.478Z,53.6
2018-05-09T06:54:59.314Z,53.6
2018-05-09T06:55:49.072Z,53.6
2018-05-09T06:56:39.131Z,53.5
2018-05-09T06:57:29.210Z,53.5
2018-05-09T06:58:19.307Z,53.5
2018-05-09T06:59:10.414Z,53.5
2018-05-09T06:59:59.876Z,53.5
2018-05-09T07:00:50.014Z,53.4
2018-05-09T07:01:40.149Z,53.4
2018-05-09T07:02:30.140Z,53.4
2018-05-09T07:03:20.217Z,53.4
2018-05-09T07:04:10.304Z,53.4
2018-05-09T07:05:00.070Z,53.4
2018-05-09T07:05:50.407Z,53.4
2018-05-09T07:06:42.916Z,53.4
2018-05-09T07:07:30.281Z,53.3
2018-05-09T07:08:20.328Z,53.3
2018-05-09T07:09:10.369Z,53.3
2018-05-09T07:10:00.147Z,53.3
2018-05-09T07:10:50.818Z,53.3
2018-05-09T07:11:40.028Z,53.3
2018-05-09T07:12:31.109Z,53.3
2018-05-09T07:13:20.713Z,53.3
2018-05-09T07:14:10.871Z,53.2
2018-05-09T07:15:01.084Z,53.2
2018-05-09T07:15:50.897Z,53.2
2018-05-09T07:16:41.225Z,53.2
2018-05-09T07:17:31.015Z,53.2
2018-05-09T07:18:21.362Z,53.2
2018-05-09T07:19:11.457Z,53.1
2018-05-09T07:20:01.197Z,53.1
2018-05-09T07:20:51.581Z,53.1
2018-05-09T07:21:41.047Z,53.1
2018-05-09T07:22:31.685Z,53.1
2018-05-09T07:23:21.735Z,53.1
2018-05-09T07:24:11.536Z,53.1
2018-05-09T07:25:01.596Z,53.1
2018-05-09T07:25:51.366Z,53
2018-05-09T07:26:41.993Z,53
2018-05-09T07:27:31.766Z,53
2018-05-09T07:28:21.860Z,53
2018-05-09T07:29:11.923Z,52.9
2018-05-09T07:30:02.268Z,53
2018-05-09T07:30:52.307Z,52.9
2018-05-09T07:31:42.357Z,52.9
2018-05-09T07:32:32.437Z,52.9
2018-05-09T07:33:22.510Z,52.9
2018-05-09T07:34:12.574Z,52.9
2018-05-09T07:35:02.637Z,52.9
2018-05-09T07:35:52.036Z,52.9
2018-05-09T07:36:42.512Z,52.8
2018-05-09T07:37:32.832Z,52.8
2018-05-09T07:38:22.048Z,52.8
2018-05-09T07:39:11.904Z,52.8
2018-05-09T07:40:03.024Z,52.8
2018-05-09T07:40:53.170Z,52.8
2018-05-09T07:41:42.392Z,52.8
2018-05-09T07:42:32.921Z,52.8
2018-05-09T07:43:23.271Z,52.8
2018-05-09T07:44:12.880Z,52.8
2018-05-09T07:45:03.148Z,52.7
2018-05-09T07:45:53.197Z,52.7
2018-05-09T07:46:43.529Z,52.7
2018-05-09T07:47:33.662Z,52.7
2018-05-09T07:48:23.391Z,52.6
2018-05-09T07:49:12.889Z,52.6
2018-05-09T07:50:03.223Z,52.6
2018-05-09T07:50:53.565Z,52.6
2018-05-09T07:51:43.616Z,52.6
2018-05-09T07:52:33.984Z,52.6
2018-05-09T07:53:23.566Z,52.6
2018-05-09T07:54:13.644Z,52.6
2018-05-09T07:55:03.433Z,52.6
2018-05-09T07:55:54.204Z,52.5
2018-05-09T07:56:44.222Z,52.5
2018-05-09T07:57:33.408Z,52.5
2018-05-09T07:58:24.433Z,52.5
2018-05-09T07:59:14.496Z,52.5
2018-05-09T08:00:04.578Z,52.4
2018-05-09T08:00:54.320Z,52.4
2018-05-09T08:01:44.397Z,52.4
2018-05-09T08:02:34.479Z,52.4
2018-05-09T08:07:34.852Z,52.3
2018-05-09T08:08:25.195Z,52.3
2018-05-09T08:09:15.240Z,52.3
2018-05-09T08:10:05.097Z,52.3
2018-05-09T08:10:55.392Z,52.3
2018-05-09T08:11:45.452Z,52.3
2018-05-09T08:12:34.471Z,52.3
2018-05-09T08:13:25.037Z,52.3
2018-05-09T08:14:14.623Z,52.2
2018-05-09T08:15:04.974Z,52.2
2018-05-09T08:15:55.022Z,52.2
2018-05-09T08:16:45.174Z,52.2
2018-05-09T08:17:35.658Z,52.1
2018-05-09T08:18:25.212Z,52.1
2018-05-09T08:19:16.062Z,52.1
2018-05-09T08:20:05.343Z,52.1
2018-05-09T08:20:56.153Z,52.1
2018-05-09T08:21:46.215Z,52.1
2018-05-09T08:22:36.287Z,52.1
2018-05-09T08:23:26.382Z,52.1
2018-05-09T08:24:16.425Z,52.1
2018-05-09T08:25:06.770Z,52
2018-05-09T08:25:56.545Z,52
2018-05-09T08:29:16.802Z,51.9
2018-05-09T08:30:06.983Z,51.9
2018-05-09T08:30:56.423Z,51.8
2018-05-09T08:31:46.445Z,51.8
2018-05-09T08:32:37.124Z,51.8
2018-05-09T08:33:27.153Z,51.8
2018-05-09T08:34:16.930Z,51.7
2018-05-09T08:35:07.285Z,51.6
2018-05-09T08:35:57.336Z,51.6
2018-05-09T08:36:47.707Z,51.6
2018-05-09T08:37:37.212Z,51.5
2018-05-09T08:38:26.963Z,51.4
2018-05-09T08:39:17.315Z,51.4
2018-05-09T08:40:07.692Z,51.4
2018-05-09T08:40:57.739Z,51.3
2018-05-09T08:41:47.501Z,51.3
2018-05-09T08:42:37.607Z,51.3
2018-05-09T08:43:28.937Z,51.3
2018-05-09T08:44:17.400Z,51.3
2018-05-09T08:45:07.773Z,51.3
2018-05-09T08:45:57.248Z,51.2
2018-05-09T08:46:47.851Z,51.2
2018-05-09T08:47:37.927Z,51.2
2018-05-09T08:48:28.034Z,51.2
2018-05-09T08:49:18.823Z,51.3
2018-05-09T08:50:08.422Z,51.3
2018-05-09T08:50:58.471Z,51.3
2018-05-09T08:51:48.258Z,51.3
2018-05-09T08:52:38.604Z,51.4
2018-05-09T08:53:28.672Z,51.4
2018-05-09T08:54:18.477Z,51.4
2018-05-09T08:55:08.527Z,51.5
2018-05-09T08:55:58.590Z,51.6
2018-05-09T08:56:48.659Z,51.6
2018-05-09T08:57:38.736Z,51.6
2018-05-09T08:58:29.098Z,51.7
2018-05-09T08:59:18.843Z,51.8
2018-05-09T09:00:08.924Z,51.8
2018-05-09T09:00:58.996Z,51.9
2018-05-09T09:02:38.823Z,52
2018-05-09T09:03:29.456Z,52
2018-05-09T09:04:19.631Z,52.1
2018-05-09T09:05:09.008Z,52.1
2018-05-09T09:05:59.658Z,52.2
2018-05-09T09:06:49.708Z,52.2
2018-05-09T09:07:39.780Z,52.3
2018-05-09T09:08:29.808Z,52.3
2018-05-09T09:10:59.822Z,52.4
2018-05-09T09:11:50.083Z,52.5
2018-05-09T09:12:40.143Z,52.6
2018-05-09T09:13:29.920Z,52.7
2018-05-09T09:14:20.065Z,52.8
2018-05-09T09:15:10.333Z,52.8
2018-05-09T09:16:00.155Z,52.8
2018-05-09T09:16:50.176Z,52.9
2018-05-09T09:17:40.235Z,52.9
2018-05-09T09:18:30.620Z,53
2018-05-09T09:19:20.394Z,53.1
2018-05-09T09:20:10.756Z,53.1
2018-05-09T09:21:00.745Z,53.1
2018-05-09T09:21:50.940Z,53.2
2018-05-09T09:22:40.939Z,53.3
2018-05-09T09:23:30.427Z,53.4
2018-05-09T09:24:20.522Z,53.4
2018-05-09T09:25:10.003Z,53.4
2018-05-09T09:26:01.178Z,53.5
2018-05-09T09:26:51.247Z,53.6
2018-05-09T09:27:40.760Z,53.6
2018-05-09T09:28:31.085Z,53.7
2018-05-09T09:29:21.312Z,53.8
2018-05-09T09:30:11.567Z,53.8
2018-05-09T09:31:01.313Z,53.9
2018-05-09T09:31:51.376Z,53.9
2018-05-09T09:32:41.419Z,53.9
2018-05-09T09:33:31.786Z,54
2018-05-09T09:34:21.864Z,54.1
2018-05-09T09:35:11.354Z,54.1
2018-05-09T09:36:01.432Z,54.2
2018-05-09T09:36:52.041Z,54.3
2018-05-09T09:37:42.139Z,54.3
2018-05-09T09:38:31.881Z,54.4
2018-05-09T09:39:22.303Z,54.4
2018-05-09T09:40:12.314Z,54.5
2018-05-09T09:41:02.152Z,54.6
2018-05-09T09:41:52.506Z,54.6
2018-05-09T09:42:42.181Z,54.6
2018-05-09T09:43:32.546Z,54.7
2018-05-09T09:44:22.327Z,54.8
2018-05-09T09:45:12.646Z,54.8
2018-05-09T09:46:02.189Z,54.9
2018-05-09T09:46:52.768Z,54.9
2018-05-09T09:47:42.866Z,55
2018-05-09T09:48:32.660Z,55.1
2018-05-09T09:49:22.988Z,55.1
2018-05-09T09:50:13.043Z,55.2
2018-05-09T09:51:03.131Z,55.3
2018-05-09T09:51:52.612Z,55.3
2018-05-09T09:52:42.935Z,55.4
2018-05-09T09:53:33.333Z,55.4
2018-05-09T09:54:22.800Z,55.5
2018-05-09T09:55:13.176Z,55.6
2018-05-09T09:56:02.693Z,55.6
2018-05-09T09:56:53.559Z,55.7
2018-05-09T09:57:43.342Z,55.7
2018-05-09T09:58:33.456Z,55.8
2018-05-09T09:59:23.839Z,55.8
2018-05-09T10:00:13.243Z,55.9
2018-05-09T10:01:03.891Z,55.9
2018-05-09T10:01:53.935Z,56
2018-05-09T10:02:43.731Z,56.1
2018-05-09T10:03:33.832Z,56.2
2018-05-09T10:04:24.126Z,56.3
2018-05-09T10:05:14.225Z,56.3
2018-05-09T10:06:03.988Z,56.3
2018-05-09T10:06:54.317Z,56.4
2018-05-09T10:07:44.407Z,56.4
2018-05-09T10:08:34.463Z,56.5
2018-05-09T10:09:24.239Z,56.6
2018-05-09T10:10:14.302Z,56.6
2018-05-09T10:11:04.369Z,56.7
2018-05-09T10:11:54.156Z,56.8
2018-05-09T10:12:44.818Z,56.8
2018-05-09T10:13:34.870Z,56.9
2018-05-09T10:14:24.914Z,56.9
2018-05-09T10:15:14.409Z,57
2018-05-09T10:16:05.610Z,57
2018-05-09T10:16:54.812Z,57.1
2018-05-09T10:17:44.912Z,57.1
2018-05-09T10:18:35.227Z,57.2
2018-05-09T10:19:25.005Z,57.3
2018-05-09T10:20:15.348Z,57.3
2018-05-09T10:21:05.145Z,57.4
2018-05-09T10:21:55.511Z,57.4
2018-05-09T10:22:45.567Z,57.5
2018-05-09T10:23:35.321Z,57.5
2018-05-09T10:24:25.391Z,57.6
2018-05-09T10:25:15.755Z,57.6
2018-05-09T10:26:05.811Z,57.7
2018-05-09T10:27:45.681Z,57.8
2018-05-09T10:28:35.721Z,57.9
2018-05-09T10:29:26.088Z,57.9
2018-05-09T10:30:15.855Z,57.9
2018-05-09T10:31:06.015Z,58
2018-05-09T10:31:56.401Z,58.1
2018-05-09T10:32:46.063Z,58.1
2018-05-09T10:33:36.143Z,58.2
2018-05-09T10:34:26.530Z,58.3
2018-05-09T10:35:16.016Z,58.3
2018-05-09T10:36:06.318Z,58.3
2018-05-09T10:36:55.617Z,58.4
2018-05-09T10:37:46.431Z,58.4
2018-05-09T10:38:36.778Z,58.5
2018-05-09T10:40:16.906Z,58.6
2018-05-09T10:41:06.972Z,58.7
2018-05-09T10:41:57.069Z,58.8
2018-05-09T10:42:47.107Z,58.8
2018-05-09T10:43:37.161Z,58.8
2018-05-09T10:44:27.231Z,58.9
2018-05-09T10:45:17.356Z,58.9
2018-05-09T10:46:07.378Z,58.9
2018-05-09T10:46:57.430Z,59
2018-05-09T10:47:47.201Z,59.1
2018-05-09T10:48:37.583Z,59.1
2018-05-09T10:49:27.341Z,59.2
2018-05-09T10:50:17.686Z,59.3
2018-05-09T10:51:07.460Z,59.3
2018-05-09T10:51:57.517Z,59.4
2018-05-09T10:52:47.869Z,59.4
2018-05-09T10:53:37.968Z,59.4
2018-05-09T10:54:28.043Z,59.5
2018-05-09T10:55:18.035Z,59.5
2018-05-09T10:56:08.104Z,59.6
2018-05-09T10:56:57.916Z,59.7
2018-05-09T10:57:47.958Z,59.7
2018-05-09T10:58:38.036Z,59.8
2018-05-09T10:59:28.452Z,59.8
2018-05-09T11:00:18.442Z,59.9
2018-05-09T11:01:07.970Z,59.9
2018-05-09T11:01:58.315Z,60
2018-05-09T11:02:47.802Z,60
2018-05-09T11:03:38.448Z,60.1
2018-05-09T11:04:28.513Z,60.1
2018-05-09T11:05:18.565Z,60.1
2018-05-09T11:06:08.355Z,60.2
2018-05-09T11:06:58.423Z,60.3
2018-05-09T11:07:48.221Z,60.3
2018-05-09T11:08:38.541Z,60.4
2018-05-09T11:09:28.907Z,60.4
2018-05-09T11:10:18.972Z,60.5
2018-05-09T11:11:09.310Z,60.5
2018-05-09T11:11:59.365Z,60.6
2018-05-09T11:12:49.417Z,60.6
2018-05-09T11:13:39.469Z,60.6
2018-05-09T11:14:29.534Z,60.7
2018-05-09T11:15:19.589Z,60.8
2018-05-09T11:16:09.657Z,60.8
2018-05-09T11:16:59.443Z,60.8
2018-05-09T11:17:49.234Z,60.9
2018-05-09T11:18:39.303Z,60.9
2018-05-09T11:19:29.669Z,61
2018-05-09T11:20:19.720Z,61
2018-05-09T11:21:10.044Z,61.1
2018-05-09T11:22:00.170Z,61.1
2018-05-09T11:22:50.194Z,61.1
2018-05-09T11:23:40.043Z,61.2
2018-05-09T11:24:31.262Z,61.3
2018-05-09T11:25:20.089Z,61.3
2018-05-09T11:26:10.169Z,61.4
2018-05-09T11:27:00.233Z,61.4
2018-05-09T11:27:50.018Z,61.4
2018-05-09T11:28:40.635Z,61.4
2018-05-09T11:29:30.413Z,61.5
2018-05-09T11:30:20.770Z,61.6
2018-05-09T11:31:10.849Z,61.6
2018-05-09T11:32:00.420Z,61.6
2018-05-09T11:32:50.691Z,61.7
2018-05-09T11:33:40.753Z,61.8
2018-05-09T11:34:31.085Z,61.8
2018-05-09T11:35:21.147Z,61.8
2018-05-09T11:36:10.661Z,61.9
2018-05-09T11:37:01.278Z,61.9
2018-05-09T11:37:50.795Z,61.9
2018-05-09T11:38:41.399Z,61.9
2018-05-09T11:39:31.463Z,62
2018-05-09T11:40:21.266Z,62.1
2018-05-09T11:41:11.322Z,62.1
2018-05-09T11:42:01.683Z,62.1
2018-05-09T11:42:51.743Z,62.2
2018-05-09T11:43:41.825Z,62.2
2018-05-09T11:44:31.885Z,62.3
2018-05-09T11:45:21.943Z,62.3
2018-05-09T11:46:12.032Z,62.4
2018-05-09T11:47:01.522Z,62.4
2018-05-09T11:47:51.809Z,62.4
2018-05-09T11:48:42.194Z,62.4
2018-05-09T11:49:31.711Z,62.5
2018-05-09T11:50:22.318Z,62.6
2018-05-09T11:51:12.126Z,62.6
2018-05-09T11:52:02.173Z,62.6
2018-05-09T11:52:51.950Z,62.6
2018-05-09T11:53:42.592Z,62.7
2018-05-09T11:54:32.352Z,62.8
2018-05-09T11:55:22.163Z,62.8
2018-05-09T11:56:12.201Z,62.8
2018-05-09T11:57:02.823Z,62.9
2018-05-09T11:57:52.913Z,62.9
2018-05-09T11:58:42.943Z,62.9
2018-05-09T11:59:33.015Z,62.9
2018-05-09T12:00:23.086Z,63
2018-05-09T12:01:13.162Z,63
2018-05-09T12:02:03.251Z,63.1
2018-05-09T12:02:53.010Z,63.1
2018-05-09T12:03:43.384Z,63.1
2018-05-09T12:04:33.120Z,63.1
2018-05-09T12:05:22.915Z,63.2
2018-05-09T12:06:13.373Z,63.2
2018-05-09T12:07:03.629Z,63.3
2018-05-09T12:07:53.130Z,63.3
2018-05-09T12:08:43.466Z,63.4
2018-05-09T12:09:33.253Z,63.4
2018-05-09T12:10:24.675Z,63.4
2018-05-09T12:11:13.930Z,63.4
2018-05-09T12:12:03.992Z,63.4
2018-05-09T12:12:53.798Z,63.5
2018-05-09T12:13:44.150Z,63.5
2018-05-09T12:14:33.921Z,63.6
2018-05-09T12:15:24.265Z,63.6
2018-05-09T12:16:13.464Z,63.6
2018-05-09T12:17:04.378Z,63.6
2018-05-09T12:17:54.450Z,63.7
2018-05-09T12:18:44.250Z,63.7
2018-05-09T12:19:34.304Z,63.8
2018-05-09T12:20:24.177Z,63.8
2018-05-09T12:21:13.897Z,63.8
2018-05-09T12:22:04.515Z,63.8
2018-05-09T12:22:54.662Z,63.9
2018-05-09T12:23:44.137Z,63.9
2018-05-09T12:24:35.565Z,63.9
2018-05-09T12:25:24.462Z,63.9
2018-05-09T12:26:15.106Z,63.9
2018-05-09T12:27:04.956Z,64
2018-05-09T12:27:54.947Z,64
2018-05-09T12:28:45.298Z,64.1
2018-05-09T12:29:35.372Z,64.1
2018-05-09T12:30:25.443Z,64.1
2018-05-09T12:31:15.193Z,64.1
2018-05-09T12:32:05.540Z,64.1
2018-05-09T12:32:55.617Z,64.1
2018-05-09T12:33:45.707Z,64.2
2018-05-09T12:34:35.739Z,64.3
2018-05-09T12:35:25.502Z,64.2
2018-05-09T12:36:15.674Z,64.3
2018-05-09T12:37:05.949Z,64.3
2018-05-09T12:37:55.977Z,64.3
2018-05-09T12:38:45.830Z,64.3
2018-05-09T12:39:35.858Z,64.4
2018-05-09T12:40:26.209Z,64.4
2018-05-09T12:41:16.009Z,64.4
2018-05-09T12:42:06.350Z,64.4
2018-05-09T12:42:55.845Z,64.4
2018-05-09T12:43:46.179Z,64.4
2018-05-09T12:44:36.256Z,64.5
2018-05-09T12:45:26.317Z,64.5
2018-05-09T12:46:16.352Z,64.5
2018-05-09T12:47:06.696Z,64.6
2018-05-09T12:47:56.775Z,64.6
2018-05-09T12:48:47.902Z,64.6
2018-05-09T12:49:36.344Z,64.6
2018-05-09T12:50:26.744Z,64.6
2018-05-09T12:51:16.466Z,64.6
2018-05-09T12:52:06.569Z,64.6
2018-05-09T12:52:56.583Z,64.6
2018-05-09T12:53:47.232Z,64.7
2018-05-09T12:54:37.780Z,64.7
2018-05-09T12:55:27.335Z,64.7
2018-05-09T12:56:17.407Z,64.7
2018-05-09T12:57:07.463Z,64.8
2018-05-09T12:57:57.554Z,64.8
2018-05-09T12:58:47.354Z,64.8
2018-05-09T12:59:37.654Z,64.8
2018-05-09T13:00:28.445Z,64.8
2018-05-09T13:01:17.251Z,64.8
2018-05-09T13:02:07.326Z,64.8
2018-05-09T13:02:57.976Z,64.8
2018-05-09T13:03:47.467Z,64.8
2018-05-09T13:04:38.109Z,64.9
2018-05-09T13:05:28.137Z,64.9
2018-05-09T13:06:18.227Z,64.9
2018-05-09T13:07:07.789Z,64.9
2018-05-09T13:07:57.291Z,64.9
2018-05-09T13:08:48.123Z,64.9
2018-05-09T13:09:38.476Z,64.9
2018-05-09T13:10:28.527Z,64.9
2018-05-09T13:11:18.415Z,64.9
2018-05-09T13:12:08.088Z,64.9
2018-05-09T13:12:58.723Z,64.9
2018-05-09T13:13:48.774Z,65
2018-05-09T13:14:38.823Z,64.9
2018-05-09T13:15:28.617Z,65
2018-05-09T13:16:19.003Z,65
2018-05-09T13:17:08.741Z,65
2018-05-09T13:17:58.840Z,65
2018-05-09T13:18:48.719Z,65
2018-05-09T13:19:38.685Z,65
2018-05-09T13:20:28.736Z,65
2018-05-09T13:21:18.816Z,65
2018-05-09T13:22:08.889Z,65
2018-05-09T13:22:58.946Z,65